Time;durP1;ratioP1;P1;durP2;ratioP2;P2;SDS_P1;SDS_P2;PMS_P1;PMS_P2;Temp;Humidity;BMP_temperature;BMP_pressure;BME280_temperature;BME280_humidity;BME280_pressure;Samples;Min_cycle;Max_cycle;Signal;HPM_P1;HPM_P2
2023/05/08 00:00:11;;;;;;;13.97;9.27;;;8.10;99.90;;;;;;5132718;27;20212;-87
2023/05/08 00:02:40;;;;;;;14.00;9.10;;;8.20;99.90;;;;;;5137828;27;20200;-87
2023/05/08 00:05:07;;;;;;;12.77;9.47;;;8.20;99.90;;;;;;5126824;27;20204;-85
2023/05/08 00:07:36;;;;;;;14.23;10.10;;;8.20;99.90;;;;;;5134937;27;20200;-87
2023/05/08 00:10:04;;;;;;;13.87;9.03;;;8.20;99.90;;;;;;5125938;27;20738;-85
2023/05/08 00:12:32;;;;;;;15.40;9.30;;;8.20;99.90;;;;;;5136360;27;20205;-86
2023/05/08 00:15:00;;;;;;;14.40;10.63;;;7.90;99.90;;;;;;5122991;28;20209;-87
2023/05/08 00:17:27;;;;;;;14.07;9.33;;;7.90;99.90;;;;;;5123608;28;20276;-87
2023/05/08 00:19:54;;;;;;;14.27;8.73;;;7.90;99.90;;;;;;5121289;28;20298;-87
2023/05/08 00:22:21;;;;;;;14.90;9.83;;;8.00;99.90;;;;;;5122358;27;20215;-87
2023/05/08 00:24:48;;;;;;;13.20;9.00;;;7.90;99.90;;;;;;5137102;27;20205;-87
2023/05/08 00:27:15;;;;;;;15.70;10.07;;;7.90;99.90;;;;;;5121889;28;20205;-87
2023/05/08 00:29:44;;;;;;;16.07;9.47;;;7.90;99.90;;;;;;5122595;28;20193;-89
2023/05/08 00:32:10;;;;;;;14.53;9.63;;;8.00;99.90;;;;;;5125921;27;20272;-86
2023/05/08 00:34:37;;;;;;;14.63;9.70;;;8.10;99.90;;;;;;5141277;27;20641;-86
2023/05/08 00:37:04;;;;;;;15.73;9.60;;;8.20;99.90;;;;;;5150912;27;20204;-87
2023/05/08 00:39:31;;;;;;;15.27;9.43;;;8.20;99.90;;;;;;5146089;27;20235;-86
2023/05/08 00:41:57;;;;;;;15.30;9.13;;;8.10;99.90;;;;;;5125353;27;20209;-87
2023/05/08 00:44:24;;;;;;;13.43;9.13;;;8.00;99.90;;;;;;5123993;28;20207;-87
2023/05/08 00:46:53;;;;;;;13.30;8.77;;;8.30;99.90;;;;;;5125130;28;20205;-87
2023/05/08 00:49:20;;;;;;;13.57;9.67;;;8.10;99.90;;;;;;5123643;28;20201;-87
2023/05/08 00:51:50;;;;;;;16.03;9.40;;;8.00;99.90;;;;;;5124046;28;20213;-86
2023/05/08 00:54:17;;;;;;;12.30;8.73;;;8.00;99.90;;;;;;5128763;27;20213;-87
2023/05/08 00:56:45;;;;;;;13.57;8.73;;;8.00;99.90;;;;;;5145154;27;20204;-87
2023/05/08 00:59:14;;;;;;;13.03;8.77;;;7.90;99.90;;;;;;5142239;27;20209;-87
2023/05/08 01:01:41;;;;;;;12.67;8.47;;;7.80;99.90;;;;;;5118602;28;20225;-86
2023/05/08 01:04:09;;;;;;;14.17;8.63;;;7.80;99.90;;;;;;5116095;28;20207;-86
2023/05/08 01:06:37;;;;;;;15.70;10.13;;;7.80;99.90;;;;;;5116975;27;20209;-86
2023/05/08 01:09:04;;;;;;;15.57;9.20;;;7.80;99.90;;;;;;5119754;27;20660;-86
2023/05/08 01:11:37;;;;;;;12.63;9.70;;;7.70;99.90;;;;;;5125132;27;20224;-86
2023/05/08 01:14:11;;;;;;;15.00;8.47;;;7.90;99.90;;;;;;5130161;27;20207;-86
2023/05/08 01:16:43;;;;;;;13.33;8.70;;;7.60;99.90;;;;;;5117059;27;20236;-86
2023/05/08 01:19:38;;;;;;;13.93;8.83;;;7.70;99.90;;;;;;5126437;27;20746;-86
2023/05/08 01:22:18;;;;;;;14.53;9.50;;;7.60;99.90;;;;;;5129920;27;20199;-86
2023/05/08 01:25:16;;;;;;;13.80;8.87;;;7.70;99.90;;;;;;5117444;27;20203;-87
2023/05/08 01:28:15;;;;;;;12.43;8.63;;;7.60;99.90;;;;;;5125035;27;20283;-87
2023/05/08 01:30:59;;;;;;;15.50;9.30;;;7.60;99.90;;;;;;5124712;27;20212;-86
2023/05/08 01:33:34;;;;;;;13.70;9.00;;;7.60;99.90;;;;;;5124405;27;20233;-87
2023/05/08 01:36:11;;;;;;;14.40;9.20;;;7.60;99.90;;;;;;5117456;27;20207;-86
2023/05/08 01:38:47;;;;;;;13.00;8.67;;;7.60;99.90;;;;;;5115046;28;20220;-86
2023/05/08 01:41:18;;;;;;;12.97;8.83;;;7.60;99.90;;;;;;5113938;28;20605;-86
2023/05/08 01:43:52;;;;;;;13.23;8.97;;;7.60;99.90;;;;;;5114351;28;20667;-86
2023/05/08 01:46:22;;;;;;;12.50;8.30;;;7.80;99.90;;;;;;5114595;28;20209;-87
2023/05/08 01:49:05;;;;;;;12.27;8.53;;;7.60;99.90;;;;;;5114754;28;20204;-86
2023/05/08 01:51:39;;;;;;;11.67;8.57;;;7.70;99.90;;;;;;5113812;28;20224;-87
2023/05/08 01:54:09;;;;;;;13.00;8.70;;;7.70;99.90;;;;;;5113967;28;20208;-87
2023/05/08 01:56:38;;;;;;;14.17;8.97;;;7.70;99.90;;;;;;5114405;28;20580;-87
2023/05/08 01:59:08;;;;;;;13.80;9.17;;;7.70;99.90;;;;;;5114270;28;20220;-88
2023/05/08 02:01:35;;;;;;;12.07;8.70;;;7.60;99.90;;;;;;5125382;27;20506;-88
2023/05/08 02:04:06;;;;;;;12.50;8.43;;;7.50;99.90;;;;;;5132277;27;20196;-88
2023/05/08 02:06:34;;;;;;;12.73;8.63;;;7.40;99.90;;;;;;5134069;27;20233;-87
2023/05/08 02:09:02;;;;;;;13.90;9.50;;;7.40;99.90;;;;;;5134227;27;20678;-88
2023/05/08 02:11:32;;;;;;;13.47;8.60;;;7.30;99.90;;;;;;5116434;27;20274;-87
2023/05/08 02:14:00;;;;;;;12.63;9.03;;;7.20;99.90;;;;;;5113938;28;20211;-87
2023/05/08 02:16:28;;;;;;;13.73;8.87;;;7.20;99.90;;;;;;5114129;28;20258;-87
2023/05/08 02:18:57;;;;;;;12.47;8.43;;;7.20;99.90;;;;;;5114255;28;20221;-87
2023/05/08 02:21:26;;;;;;;16.57;10.03;;;7.20;99.90;;;;;;5114243;28;20221;-87
2023/05/08 02:23:56;;;;;;;13.60;9.77;;;7.20;99.90;;;;;;5122186;27;20219;-87
2023/05/08 02:26:24;;;;;;;15.53;9.37;;;7.10;99.90;;;;;;5134676;27;20203;-87
2023/05/08 02:28:53;;;;;;;13.23;9.23;;;7.10;99.90;;;;;;5125153;27;20249;-87
2023/05/08 02:31:20;;;;;;;13.53;10.10;;;7.10;99.90;;;;;;5113583;28;20604;-88
2023/05/08 02:33:49;;;;;;;13.67;9.13;;;7.00;99.90;;;;;;5113786;28;20295;-87
2023/05/08 02:36:19;;;;;;;13.83;9.20;;;6.90;99.90;;;;;;5118469;27;20205;-88
2023/05/08 02:38:57;;;;;;;14.63;9.20;;;6.70;99.90;;;;;;5132821;27;20216;-87
2023/05/08 02:41:27;;;;;;;13.80;9.47;;;6.40;99.90;;;;;;5127323;27;20244;-88
2023/05/08 02:43:55;;;;;;;15.90;9.73;;;6.40;99.90;;;;;;5113940;28;20205;-87
2023/05/08 02:46:27;;;;;;;15.30;10.40;;;6.30;99.90;;;;;;5113633;28;20288;-87
2023/05/08 02:48:58;;;;;;;16.07;10.53;;;6.30;99.90;;;;;;5113521;28;20197;-86
2023/05/08 02:51:33;;;;;;;15.23;10.53;;;6.10;99.90;;;;;;5113493;28;20220;-87
2023/05/08 02:54:11;;;;;;;14.10;10.27;;;6.10;99.90;;;;;;5124527;27;20206;-88
2023/05/08 02:56:43;;;;;;;14.90;10.57;;;6.00;99.90;;;;;;5134409;27;20261;-88
2023/05/08 02:59:16;;;;;;;15.10;9.63;;;5.90;99.90;;;;;;5133398;27;20246;-87
2023/05/08 03:01:49;;;;;;;15.73;10.83;;;5.90;99.90;;;;;;5134466;27;20227;-87
2023/05/08 03:04:24;;;;;;;17.20;10.00;;;5.90;99.90;;;;;;5134198;27;20260;-87
2023/05/08 03:06:54;;;;;;;15.03;10.60;;;5.90;99.90;;;;;;5134012;27;20279;-87
2023/05/08 03:09:25;;;;;;;15.33;10.67;;;6.10;99.90;;;;;;5134338;28;20291;-89
2023/05/08 03:11:59;;;;;;;15.67;11.40;;;6.20;99.90;;;;;;5137560;27;20203;-86
2023/05/08 03:14:30;;;;;;;14.40;9.30;;;6.20;99.90;;;;;;5141824;27;20291;-87
2023/05/08 03:16:59;;;;;;;15.23;11.37;;;6.10;99.90;;;;;;5129670;27;20196;-88
2023/05/08 03:19:30;;;;;;;13.87;10.07;;;6.10;99.90;;;;;;5124877;27;20307;-87
2023/05/08 03:22:00;;;;;;;14.27;10.43;;;6.10;99.90;;;;;;5123891;27;20193;-87
2023/05/08 03:24:31;;;;;;;15.03;9.70;;;6.20;99.90;;;;;;5121743;27;20578;-85
2023/05/08 03:27:00;;;;;;;15.57;10.03;;;6.20;99.90;;;;;;5121283;28;20259;-87
2023/05/08 03:29:30;;;;;;;13.77;9.60;;;6.10;99.90;;;;;;5120618;28;20224;-86
2023/05/08 03:32:00;;;;;;;15.87;9.87;;;6.10;99.90;;;;;;5119776;28;20204;-87
2023/05/08 03:34:28;;;;;;;15.07;10.27;;;6.10;99.90;;;;;;5118701;28;20201;-87
2023/05/08 03:36:56;;;;;;;14.77;10.63;;;6.10;99.90;;;;;;5119020;28;20200;-87
2023/05/08 03:39:27;;;;;;;16.40;10.57;;;6.20;99.90;;;;;;5121928;28;20703;-87
2023/05/08 03:41:59;;;;;;;15.03;9.43;;;6.30;99.90;;;;;;5119821;27;20686;-87
2023/05/08 03:44:28;;;;;;;15.93;9.90;;;6.40;99.90;;;;;;5119685;28;20205;-87
2023/05/08 03:47:00;;;;;;;13.10;9.97;;;6.40;99.90;;;;;;5119892;28;20205;-87
2023/05/08 03:49:30;;;;;;;16.40;9.30;;;6.40;99.90;;;;;;5119457;28;20732;-86
2023/05/08 03:51:58;;;;;;;13.97;10.20;;;6.40;99.90;;;;;;5119257;28;20207;-88
2023/05/08 03:54:27;;;;;;;14.57;10.23;;;6.40;99.90;;;;;;5119023;28;20211;-87
2023/05/08 03:56:55;;;;;;;15.77;9.83;;;6.80;99.90;;;;;;5119259;28;20211;-87
2023/05/08 03:59:30;;;;;;;14.90;9.57;;;7.20;99.90;;;;;;5118814;28;20718;-87
2023/05/08 04:02:08;;;;;;;14.23;9.17;;;7.70;99.90;;;;;;5118758;28;20227;-87
2023/05/08 04:04:39;;;;;;;12.80;8.57;;;7.80;99.90;;;;;;5119247;28;20201;-87
2023/05/08 04:07:10;;;;;;;12.77;9.60;;;8.10;99.90;;;;;;5119204;27;20208;-88
2023/05/08 04:09:52;;;;;;;14.20;8.80;;;8.60;99.90;;;;;;5119424;28;20239;-88
2023/05/08 04:12:47;;;;;;;12.00;8.33;;;8.50;99.90;;;;;;5119946;28;20216;-88
2023/05/08 04:15:27;;;;;;;12.80;8.23;;;8.20;99.90;;;;;;5119584;28;20296;-88
2023/05/08 04:18:02;;;;;;;11.87;8.07;;;8.30;99.90;;;;;;5120600;27;20199;-87
2023/05/08 04:20:40;;;;;;;13.30;8.40;;;8.20;99.90;;;;;;5133953;27;20245;-87
2023/05/08 04:23:16;;;;;;;14.30;8.67;;;8.20;99.90;;;;;;5127647;27;20213;-86
2023/05/08 04:25:49;;;;;;;12.73;8.57;;;8.80;99.90;;;;;;5116640;27;20216;-89
2023/05/08 04:28:30;;;;;;;13.33;8.90;;;8.20;99.90;;;;;;5133060;27;20326;-89
2023/05/08 04:31:03;;;;;;;11.67;8.03;;;8.40;99.90;;;;;;5146560;27;20291;-87
2023/05/08 04:33:36;;;;;;;13.17;9.10;;;8.50;99.90;;;;;;5127674;27;20268;-87
2023/05/08 04:36:24;;;;;;;;;;;;;;;;;;;;;
2023/05/08 04:38:53;;;;;;;13.50;9.13;;;7.70;99.90;;;;;;5127918;27;20660;-86
2023/05/08 04:41:23;;;;;;;13.13;9.03;;;7.80;99.90;;;;;;5117158;28;20656;-86
2023/05/08 04:44:06;;;;;;;13.13;9.10;;;7.70;99.90;;;;;;5117506;28;20228;-87
2023/05/08 04:46:39;;;;;;;13.83;9.30;;;7.50;99.90;;;;;;5117563;28;20541;-85
2023/05/08 04:49:07;;;;;;;13.17;9.03;;;7.60;99.90;;;;;;5116582;28;20215;-86
2023/05/08 04:51:42;;;;;;;13.73;9.17;;;7.80;99.90;;;;;;5115957;28;20221;-88
2023/05/08 04:54:25;;;;;;;13.83;9.30;;;7.80;99.90;;;;;;5116340;28;20212;-86
2023/05/08 04:57:01;;;;;;;14.97;9.00;;;7.80;99.90;;;;;;5117235;28;20205;-86
2023/05/08 04:59:33;;;;;;;15.33;9.60;;;7.90;99.90;;;;;;5116742;28;20671;-85
2023/05/08 05:02:05;;;;;;;14.00;9.23;;;8.10;99.90;;;;;;5116514;27;20242;-87
2023/05/08 05:04:34;;;;;;;14.03;9.10;;;8.10;99.90;;;;;;5117962;27;20200;-86
2023/05/08 05:07:16;;;;;;;11.83;8.53;;;8.10;99.90;;;;;;5134713;27;20250;-86
2023/05/08 05:09:53;;;;;;;15.27;9.33;;;8.20;99.90;;;;;;5137654;27;20230;-85
2023/05/08 05:12:21;;;;;;;12.80;8.97;;;8.20;99.90;;;;;;5131988;27;20236;-86
2023/05/08 05:14:53;;;;;;;13.73;9.23;;;8.20;99.90;;;;;;5115743;28;20643;-86
2023/05/08 05:17:28;;;;;;;12.87;9.03;;;8.20;99.90;;;;;;5116718;28;20682;-87
2023/05/08 05:20:07;;;;;;;15.90;9.87;;;8.30;99.90;;;;;;5115946;28;20244;-86
2023/05/08 05:22:35;;;;;;;13.87;9.53;;;8.30;99.90;;;;;;5116277;28;20209;-86
2023/05/08 05:25:11;;;;;;;13.93;8.93;;;8.30;99.90;;;;;;5116377;28;20200;-86
2023/05/08 05:27:40;;;;;;;14.60;9.17;;;8.10;99.90;;;;;;5115842;28;20204;-87
2023/05/08 05:30:16;;;;;;;13.60;8.50;;;8.10;99.90;;;;;;5115781;28;20221;-86
2023/05/08 05:32:48;;;;;;;15.87;9.90;;;8.20;99.90;;;;;;5116314;28;20261;-86
2023/05/08 05:35:16;;;;;;;16.17;9.10;;;8.30;99.90;;;;;;5115902;28;20204;-87
2023/05/08 05:37:48;;;;;;;14.77;9.63;;;8.20;99.90;;;;;;5116045;28;20624;-86
2023/05/08 05:40:21;;;;;;;15.43;9.97;;;8.30;99.90;;;;;;5115787;28;20633;-86
2023/05/08 05:42:53;;;;;;;15.07;9.67;;;8.30;99.90;;;;;;5116548;28;20227;-87
2023/05/08 05:45:24;;;;;;;11.80;8.70;;;8.40;99.90;;;;;;5117133;28;20240;-87
2023/05/08 05:47:52;;;;;;;14.33;9.30;;;8.20;99.90;;;;;;5116242;28;20232;-86
2023/05/08 05:50:20;;;;;;;15.17;9.53;;;8.20;99.90;;;;;;5115075;28;20576;-87
2023/05/08 05:52:47;;;;;;;14.67;9.50;;;8.40;99.90;;;;;;5114421;28;20240;-87
2023/05/08 05:55:13;;;;;;;16.07;10.23;;;8.50;99.90;;;;;;5134421;27;20210;-86
2023/05/08 05:57:40;;;;;;;17.57;11.10;;;8.40;99.90;;;;;;5149280;27;20203;-87
2023/05/08 06:00:11;;;;;;;15.57;10.07;;;8.50;99.90;;;;;;5142620;27;20220;-86
2023/05/08 06:02:42;;;;;;;15.53;10.10;;;8.60;99.90;;;;;;5129270;27;20233;-86
2023/05/08 06:05:10;;;;;;;14.23;10.13;;;8.70;99.90;;;;;;5114143;28;20205;-86
2023/05/08 06:07:37;;;;;;;15.17;10.03;;;8.70;99.90;;;;;;5114137;28;20201;-86
2023/05/08 06:10:04;;;;;;;15.37;9.57;;;8.70;99.90;;;;;;5113947;28;20269;-86
2023/05/08 06:12:31;;;;;;;18.20;10.70;;;8.70;99.90;;;;;;5113101;28;20683;-86
2023/05/08 06:14:58;;;;;;;15.63;10.03;;;9.00;99.90;;;;;;5113761;28;20683;-86
2023/05/08 06:17:28;;;;;;;13.73;9.50;;;9.20;99.90;;;;;;5114084;28;20208;-86
2023/05/08 06:19:56;;;;;;;14.83;9.77;;;9.20;99.90;;;;;;5114689;28;20699;-86
2023/05/08 06:22:24;;;;;;;15.13;10.07;;;9.30;99.90;;;;;;5114193;28;20204;-86
2023/05/08 06:24:52;;;;;;;16.17;10.37;;;9.50;99.90;;;;;;5113758;28;20203;-86
2023/05/08 06:27:20;;;;;;;15.70;9.60;;;9.70;99.90;;;;;;5113592;28;20212;-87
2023/05/08 06:29:47;;;;;;;14.60;9.63;;;9.60;99.90;;;;;;5113020;28;20221;-87
2023/05/08 06:32:14;;;;;;;15.30;9.93;;;9.50;99.90;;;;;;5113299;28;20193;-86
2023/05/08 06:34:41;;;;;;;16.13;10.40;;;9.70;99.90;;;;;;5132980;27;20222;-86
2023/05/08 06:37:09;;;;;;;14.00;9.73;;;9.70;99.90;;;;;;5132174;27;20224;-86
2023/05/08 06:39:36;;;;;;;16.70;9.83;;;9.70;99.90;;;;;;5132510;27;20228;-87
2023/05/08 06:42:03;;;;;;;14.97;9.50;;;9.90;99.90;;;;;;5113672;28;20217;-85
2023/05/08 06:44:30;;;;;;;14.43;9.83;;;9.90;99.90;;;;;;5114081;28;20212;-86
2023/05/08 06:46:57;;;;;;;15.83;10.13;;;10.10;99.90;;;;;;5112926;28;20284;-86
2023/05/08 06:49:24;;;;;;;15.33;10.43;;;10.60;99.90;;;;;;5113538;28;20214;-86
2023/05/08 06:51:51;;;;;;;14.83;10.17;;;10.40;99.90;;;;;;5113310;28;20216;-86
2023/05/08 06:54:19;;;;;;;16.63;10.17;;;11.00;99.90;;;;;;5113971;28;20207;-86
2023/05/08 06:56:46;;;;;;;16.07;10.20;;;10.50;99.90;;;;;;5114523;28;20287;-86
2023/05/08 06:59:13;;;;;;;15.77;10.37;;;10.20;99.90;;;;;;5113417;27;20212;-86
2023/05/08 07:01:40;;;;;;;15.70;10.53;;;10.60;99.90;;;;;;5113315;28;20225;-86
2023/05/08 07:04:07;;;;;;;15.57;10.30;;;11.00;99.90;;;;;;5113674;28;20265;-86
2023/05/08 07:06:34;;;;;;;13.93;9.23;;;11.30;99.90;;;;;;5114452;28;20224;-86
2023/05/08 07:09:00;;;;;;;13.93;10.27;;;11.10;99.90;;;;;;5113519;28;20220;-86
2023/05/08 07:11:29;;;;;;;17.07;10.93;;;11.30;99.90;;;;;;5113506;28;20224;-87
2023/05/08 07:13:59;;;;;;;16.47;11.00;;;10.60;99.90;;;;;;5115598;28;20205;-85
2023/05/08 07:16:25;;;;;;;15.60;10.37;;;10.80;99.90;;;;;;5123699;27;20678;-87
2023/05/08 07:18:52;;;;;;;15.33;10.53;;;10.70;99.90;;;;;;5141348;27;20283;-86
2023/05/08 07:21:20;;;;;;;14.73;10.93;;;10.70;99.90;;;;;;5144951;27;20243;-86
2023/05/08 07:23:50;;;;;;;15.83;10.53;;;10.50;99.90;;;;;;5153145;27;20219;-86
2023/05/08 07:26:17;;;;;;;15.63;10.87;;;10.80;99.90;;;;;;5136680;27;20571;-87
2023/05/08 07:28:45;;;;;;;16.17;10.93;;;10.90;99.90;;;;;;5133529;28;20240;-87
2023/05/08 07:31:12;;;;;;;14.63;10.40;;;10.80;99.90;;;;;;5118499;27;20225;-88
2023/05/08 07:33:39;;;;;;;16.47;10.87;;;11.10;99.90;;;;;;5113109;28;20209;-87
2023/05/08 07:36:06;;;;;;;16.60;10.30;;;10.90;99.90;;;;;;5112840;28;20218;-86
2023/05/08 07:38:33;;;;;;;15.90;10.63;;;11.00;99.90;;;;;;5112691;28;20201;-87
2023/05/08 07:41:00;;;;;;;13.93;9.63;;;11.20;99.90;;;;;;5113673;28;20233;-87
2023/05/08 07:43:27;;;;;;;15.17;10.23;;;11.10;99.90;;;;;;5114408;28;20675;-87
2023/05/08 07:45:56;;;;;;;15.77;10.47;;;11.20;99.90;;;;;;5114200;28;20211;-87
2023/05/08 07:48:22;;;;;;;18.27;10.77;;;11.20;99.90;;;;;;5113167;28;20197;-87
2023/05/08 07:50:50;;;;;;;15.53;11.27;;;11.30;99.90;;;;;;5113331;28;20225;-87
2023/05/08 07:53:16;;;;;;;13.87;10.10;;;11.50;99.90;;;;;;5113659;28;20281;-87
2023/05/08 07:55:43;;;;;;;16.70;11.73;;;11.30;99.90;;;;;;5120520;27;20289;-87
2023/05/08 07:58:10;;;;;;;14.63;10.93;;;11.10;99.90;;;;;;5119618;27;20574;-86
2023/05/08 08:00:38;;;;;;;16.13;10.50;;;11.40;99.90;;;;;;5125162;27;20247;-87
2023/05/08 08:03:08;;;;;;;15.40;10.93;;;11.50;99.90;;;;;;5126133;27;20200;-88
2023/05/08 08:05:36;;;;;;;16.07;11.13;;;11.80;99.90;;;;;;5134501;27;20283;-87
2023/05/08 08:08:04;;;;;;;14.47;10.60;;;12.00;99.90;;;;;;5145006;27;20563;-87
2023/05/08 08:10:31;;;;;;;15.00;10.90;;;12.10;99.90;;;;;;5132374;27;20594;-87
2023/05/08 08:13:00;;;;;;;15.73;11.13;;;11.80;99.90;;;;;;5137302;27;20651;-87
2023/05/08 08:15:27;;;;;;;15.63;10.87;;;11.90;99.90;;;;;;5128363;27;20617;-87
2023/05/08 08:17:54;;;;;;;15.00;10.73;;;11.90;99.90;;;;;;5122043;27;20584;-88
2023/05/08 08:20:22;;;;;;;16.13;10.63;;;12.10;99.90;;;;;;5135991;27;20224;-86
2023/05/08 08:22:49;;;;;;;14.63;10.67;;;12.20;99.90;;;;;;5136969;27;20215;-87
2023/05/08 08:25:16;;;;;;;14.40;10.67;;;12.40;99.90;;;;;;5136296;27;20208;-86
2023/05/08 08:27:43;;;;;;;15.87;11.13;;;12.50;99.90;;;;;;5136496;27;20255;-86
2023/05/08 08:30:10;;;;;;;15.33;10.20;;;12.50;99.90;;;;;;5136698;27;20224;-87
2023/05/08 08:32:37;;;;;;;15.63;11.43;;;12.40;99.90;;;;;;5136444;27;20208;-86
2023/05/08 08:35:04;;;;;;;15.67;11.07;;;12.50;99.90;;;;;;5131476;27;20207;-86
2023/05/08 08:37:32;;;;;;;15.77;10.27;;;12.60;99.90;;;;;;5117498;28;20205;-88
2023/05/08 08:40:00;;;;;;;14.77;10.60;;;12.70;99.90;;;;;;5115884;27;20311;-86
2023/05/08 08:42:27;;;;;;;14.40;10.30;;;12.90;99.90;;;;;;5117220;28;20228;-86
2023/05/08 08:44:55;;;;;;;15.30;10.80;;;13.00;99.90;;;;;;5117478;28;20296;-86
2023/05/08 08:47:26;;;;;;;14.83;10.73;;;12.90;99.90;;;;;;5115447;28;20679;-86
2023/05/08 08:49:54;;;;;;;15.00;10.73;;;13.20;99.90;;;;;;5115519;28;20232;-86
2023/05/08 08:52:30;;;;;;;13.53;10.20;;;13.40;99.90;;;;;;5115618;28;20200;-86
2023/05/08 08:55:04;;;;;;;15.33;10.80;;;14.10;99.90;;;;;;5117032;28;20253;-87
2023/05/08 08:57:33;;;;;;;15.57;11.43;;;14.00;99.90;;;;;;5115639;28;20686;-87
2023/05/08 09:00:03;;;;;;;14.63;10.48;;;14.20;99.90;;;;;;5115305;28;20216;-87
2023/05/08 09:02:31;;;;;;;14.85;10.23;;;14.00;99.90;;;;;;5115740;28;20656;-86
2023/05/08 09:04:59;;;;;;;13.70;9.68;;;14.40;99.90;;;;;;5115681;28;20209;-87
2023/05/08 09:07:26;;;;;;;13.23;10.25;;;14.20;99.90;;;;;;5115589;28;20203;-86
2023/05/08 09:09:54;;;;;;;12.25;9.30;;;14.70;99.90;;;;;;5113681;28;20602;-85
2023/05/08 09:12:22;;;;;;;12.63;9.40;;;15.90;99.90;;;;;;5114952;28;20273;-86
2023/05/08 09:14:54;;;;;;;13.13;10.38;;;15.30;99.90;;;;;;5114972;28;20205;-86
2023/05/08 09:17:24;;;;;;;11.90;9.30;;;15.20;99.90;;;;;;5115033;28;20211;-86
2023/05/08 09:19:52;;;;;;;13.15;9.98;;;15.30;99.90;;;;;;5114498;28;20311;-85
2023/05/08 09:22:20;;;;;;;12.85;10.10;;;15.20;99.90;;;;;;5114804;28;20225;-86
2023/05/08 09:24:57;;;;;;;12.43;10.10;;;15.60;99.90;;;;;;5114818;28;20246;-85
2023/05/08 09:27:26;;;;;;;13.70;10.00;;;15.70;99.90;;;;;;5114852;28;20295;-85
2023/05/08 09:30:01;;;;;;;12.63;9.75;;;15.70;99.90;;;;;;5114291;28;20295;-85
2023/05/08 09:32:28;;;;;;;12.32;9.70;;;16.70;99.90;;;;;;5114405;28;20196;-86
2023/05/08 09:34:55;;;;;;;11.13;9.32;;;16.70;99.90;;;;;;5114178;28;20260;-85
2023/05/08 09:37:22;;;;;;;10.98;8.98;;;17.00;99.90;;;;;;5113567;28;20209;-86
2023/05/08 09:39:49;;;;;;;12.45;9.50;;;17.40;99.90;;;;;;5114248;28;20220;-85
2023/05/08 09:42:18;;;;;;;12.13;10.02;;;16.80;99.90;;;;;;5114178;28;20217;-86
2023/05/08 09:44:48;;;;;;;11.73;9.02;;;16.70;99.90;;;;;;5114656;28;20201;-85
2023/05/08 09:47:16;;;;;;;12.13;10.15;;;16.90;99.90;;;;;;5114723;28;20258;-87
2023/05/08 09:49:57;;;;;;;11.93;9.18;;;16.40;99.90;;;;;;5114080;28;20287;-86
2023/05/08 09:52:25;;;;;;;12.18;9.68;;;16.50;99.90;;;;;;5114780;28;20197;-86
2023/05/08 09:55:00;;;;;;;11.25;9.13;;;16.80;99.90;;;;;;5114905;28;20207;-87
2023/05/08 09:57:27;;;;;;;11.70;8.73;;;17.10;99.90;;;;;;5114191;28;20681;-86
2023/05/08 10:00:04;;;;;;;13.52;9.50;;;17.70;99.90;;;;;;5113452;28;20232;-86
2023/05/08 10:02:31;;;;;;;10.43;8.52;;;17.60;99.90;;;;;;5114002;28;20244;-87
2023/05/08 10:04:58;;;;;;;9.07;7.95;;;17.40;99.90;;;;;;5114107;28;20215;-87
2023/05/08 10:07:30;;;;;;;10.23;8.40;;;17.30;99.90;;;;;;5114273;28;20212;-86
2023/05/08 10:10:04;;;;;;;10.27;8.40;;;17.50;99.90;;;;;;5115020;28;20231;-87
2023/05/08 10:12:40;;;;;;;9.70;7.93;;;17.80;99.90;;;;;;5117076;28;20670;-87
2023/05/08 10:15:13;;;;;;;14.60;9.27;;;17.50;99.90;;;;;;5115605;28;20700;-87
2023/05/08 10:17:47;;;;;;;8.57;7.68;;;17.70;99.90;;;;;;5119560;28;20197;-87
2023/05/08 10:20:16;;;;;;;9.38;7.93;;;17.60;99.90;;;;;;5116736;27;20221;-86
2023/05/08 10:22:44;;;;;;;10.80;7.82;;;17.50;99.90;;;;;;5125391;27;20234;-85
2023/05/08 10:25:16;;;;;;;10.45;7.93;;;17.60;99.90;;;;;;5133223;27;20226;-85
2023/05/08 10:27:56;;;;;;;9.32;7.78;;;17.90;99.90;;;;;;5134568;27;20204;-86
2023/05/08 10:30:27;;;;;;;11.18;8.60;;;17.60;99.90;;;;;;5114632;28;20267;-86
2023/05/08 10:32:57;;;;;;;11.40;8.68;;;17.20;99.90;;;;;;5115694;28;20201;-85
2023/05/08 10:35:25;;;;;;;12.55;9.02;;;17.10;99.90;;;;;;5114941;28;20229;-86
2023/05/08 10:37:53;;;;;;;13.35;9.90;;;17.20;99.90;;;;;;5114670;28;20247;-87
2023/05/08 10:40:21;;;;;;;12.02;8.70;;;17.30;99.90;;;;;;5114203;28;20233;-86
2023/05/08 10:42:48;;;;;;;11.43;9.40;;;17.50;99.90;;;;;;5116031;28;20224;-88
2023/05/08 10:45:15;;;;;;;12.32;9.73;;;17.30;99.90;;;;;;5116406;28;20195;-86
2023/05/08 10:48:04;;;;;;;12.48;9.55;;;17.50;99.90;;;;;;5114822;28;20205;-87
2023/05/08 10:50:55;;;;;;;12.60;10.48;;;17.40;99.90;;;;;;5114275;28;20251;-87
2023/05/08 10:53:31;;;;;;;14.55;10.90;;;17.50;99.90;;;;;;5114339;28;20236;-86
2023/05/08 10:55:58;;;;;;;12.57;10.23;;;17.40;99.90;;;;;;5131605;27;20581;-86
2023/05/08 10:58:30;;;;;;;12.77;9.93;;;17.50;1.00;;;;;;5127204;27;20207;-85
2023/05/08 11:01:16;;;;;;;13.93;10.02;;;17.40;1.00;;;;;;5145977;27;20225;-85
2023/05/08 11:04:06;;;;;;;12.50;9.93;;;17.80;1.00;;;;;;5133436;27;20737;-87
2023/05/08 11:06:47;;;;;;;14.93;11.30;;;17.80;1.00;;;;;;5129623;27;20299;-86
2023/05/08 11:09:22;;;;;;;13.75;10.68;;;17.40;1.00;;;;;;5113733;28;20208;-87
2023/05/08 11:12:05;;;;;;;13.82;10.25;;;17.50;99.90;;;;;;5113915;28;20226;-85
2023/05/08 11:14:34;;;;;;;14.40;9.90;;;17.50;1.00;;;;;;5116136;28;20211;-87
2023/05/08 11:17:07;;;;;;;15.07;11.02;;;17.60;1.00;;;;;;5115666;28;20604;-86
2023/05/08 11:19:36;;;;;;;14.85;10.82;;;17.70;99.90;;;;;;5122791;28;20642;-85
2023/05/08 11:22:25;;;;;;;14.63;11.27;;;17.60;99.90;;;;;;5123476;28;20247;-85
2023/05/08 11:24:57;;;;;;;14.20;10.93;;;17.40;99.90;;;;;;5119628;28;20278;-86
2023/05/08 11:28:03;;;;;;;12.75;10.15;;;17.40;99.90;;;;;;5119902;28;20211;-87
2023/05/08 11:30:38;;;;;;;16.27;11.10;;;17.80;1.00;;;;;;5131530;27;20230;-87
2023/05/08 11:33:15;;;;;;;12.90;10.10;;;18.00;1.00;;;;;;5131389;27;20196;-86
2023/05/08 11:35:48;;;;;;;14.15;11.07;;;17.80;1.00;;;;;;5132064;27;20204;-86
2023/05/08 11:38:20;;;;;;;15.23;10.95;;;17.90;1.00;;;;;;5137749;27;20200;-87
2023/05/08 11:40:58;;;;;;;14.07;10.05;;;17.80;1.00;;;;;;5125512;27;20232;-86
2023/05/08 11:43:26;;;;;;;14.73;10.98;;;17.80;1.00;;;;;;5116797;28;20229;-86
2023/05/08 11:45:54;;;;;;;14.07;9.95;;;17.70;1.00;;;;;;5116684;28;20212;-86
2023/05/08 11:48:21;;;;;;;13.57;10.30;;;17.60;99.90;;;;;;5117054;28;20205;-86
2023/05/08 11:50:52;;;;;;;14.25;10.95;;;17.90;1.00;;;;;;5119955;27;20680;-86
2023/05/08 11:53:19;;;;;;;14.02;10.38;;;18.20;1.00;;;;;;5126776;27;20193;-87
2023/05/08 11:55:48;;;;;;;12.50;10.15;;;18.20;1.00;;;;;;5123866;27;20200;-86
2023/05/08 11:58:15;;;;;;;14.32;10.70;;;17.90;1.00;;;;;;5121484;27;20667;-86
2023/05/08 12:00:44;;;;;;;13.60;10.45;;;18.00;1.00;;;;;;5128923;27;20223;-86
2023/05/08 12:03:13;;;;;;;13.15;10.38;;;18.40;99.90;;;;;;5131015;27;20616;-86
2023/05/08 12:05:40;;;;;;;14.23;10.88;;;18.20;99.90;;;;;;5131679;27;20208;-86
2023/05/08 12:08:09;;;;;;;12.35;9.48;;;18.10;1.00;;;;;;5135215;27;20208;-86
2023/05/08 12:10:40;;;;;;;11.50;9.60;;;18.50;1.00;;;;;;5148630;27;20219;-87
2023/05/08 12:13:16;;;;;;;13.10;9.23;;;18.90;1.00;;;;;;5152045;27;20221;-87
2023/05/08 12:15:43;;;;;;;11.02;8.93;;;18.50;1.00;;;;;;5136816;27;20204;-86
2023/05/08 12:18:09;;;;;;;13.20;9.63;;;18.50;1.00;;;;;;5134440;27;20216;-86
2023/05/08 12:20:36;;;;;;;12.27;9.55;;;18.50;1.00;;;;;;5116257;28;20314;-88
2023/05/08 12:23:06;;;;;;;10.13;8.30;;;18.20;1.00;;;;;;5116316;28;20883;-87
2023/05/08 12:25:34;;;;;;;10.60;9.00;;;18.30;99.90;;;;;;5116438;28;20200;-84
2023/05/08 12:28:01;;;;;;;12.15;9.10;;;18.40;1.00;;;;;;5116152;28;20727;-85
2023/05/08 12:30:28;;;;;;;9.45;8.40;;;18.60;1.00;;;;;;5124703;27;20277;-84
2023/05/08 12:32:55;;;;;;;10.85;8.75;;;18.70;99.90;;;;;;5125498;27;20193;-85
2023/05/08 12:35:22;;;;;;;9.88;8.30;;;18.40;22.20;;;;;;5130412;27;20200;-89
2023/05/08 12:37:52;;;;;;;12.38;9.20;;;18.60;99.90;;;;;;5132502;27;20200;-87
2023/05/08 12:40:26;;;;;;;11.20;8.30;;;18.50;1.00;;;;;;5119995;27;20308;-87
2023/05/08 12:42:55;;;;;;;9.63;8.15;;;18.50;1.00;;;;;;5128001;27;20242;-87
2023/05/08 12:45:24;;;;;;;9.65;7.78;;;18.70;99.90;;;;;;5137274;27;20208;-85
2023/05/08 12:47:52;;;;;;;10.85;8.27;;;19.00;99.90;;;;;;5136714;27;20236;-88
2023/05/08 12:50:21;;;;;;;13.50;8.75;;;18.60;1.00;;;;;;5133295;27;20231;-86
2023/05/08 12:52:48;;;;;;;11.27;8.88;;;18.80;1.00;;;;;;5128109;27;20753;-86
2023/05/08 12:55:22;;;;;;;12.07;8.98;;;18.80;99.90;;;;;;5133280;27;20197;-86
2023/05/08 12:58:00;;;;;;;10.05;8.07;;;19.10;1.00;;;;;;5136897;27;20555;-85